• Join FlightAware (Why Join?)
  • Login
  • US Flag 
01:34PM EDT


 

Airport Tracker/Info


-or-


 

Live Flight TrackerFlight Track Log ✈ SWR14 ✈ 16-Jul-2013 ✈ LSZH / ZRH - KJFK

Flight Track Log - Related Links

Times and Time Zones

All times are in EDT time to prevent confusion due to time zone crossing. See the SWR14 flight status page for this flight to view local times or setup timezone preferences in your user account.

Time Position Orientation Groundspeed Altitude Reporting Facility
EDT Latitude Longitude Course Direction KTS MPH feet Rate Location/Type
07:34AM 47.7216 7.7556 296° West  Level Estimated
07:35AM 47.7723 7.5960 295° West  Level Estimated
07:36AM 47.8228 7.4360 295° West  Level Estimated
07:37AM 47.8730 7.2758 295° West  Level Estimated
07:38AM 47.9231 7.1152 295° West  Level Estimated
07:39AM 47.9729 6.9543 295° West  Level Estimated
07:40AM 48.0225 6.7931 295° West  Level Estimated
07:41AM 48.0718 6.6316 295° West  Level Estimated
07:42AM 48.1210 6.4698 295° West  Level Estimated
07:43AM 48.1699 6.3077 294° West  Level Estimated
07:44AM 48.2186 6.1453 294° West  Level Estimated
07:45AM 48.2670 5.9826 294° West  Level Estimated
07:46AM 48.3152 5.8195 294° West  Level Estimated
07:47AM 48.3632 5.6562 294° West  Level Estimated
07:48AM 48.4110 5.4925 294° West  Level Estimated
07:49AM 48.4585 5.3285 294° West  Level Estimated
07:50AM 48.5058 5.1643 294° West  Level Estimated
07:51AM 48.5529 4.9997 293° West  Level Estimated
07:52AM 48.5997 4.8348 293° West  Level Estimated
07:53AM 48.6463 4.6696 293° West  Level Estimated
07:54AM 48.6926 4.5041 293° West  Level Estimated
07:55AM 48.7387 4.3383 293° West  Level Estimated
07:56AM 48.7846 4.1722 293° West  Level Estimated
07:57AM 48.8302 4.0058 293° West  Level Estimated
07:58AM 48.8756 3.8391 293° West  Level Estimated
07:59AM 48.9208 3.6721 292° West  Level Estimated
08:00AM 48.9657 3.5048 292° West  Level Estimated
08:01AM 49.0104 3.3372 292° West  Level Estimated
08:02AM 49.0548 3.1692 292° West  Level Estimated
08:03AM 49.0990 3.0010 292° West  Level Estimated
08:04AM 49.1430 2.8325 292° West  Level Estimated
08:05AM 49.1867 2.6637 292° West  Level Estimated
08:06AM 49.2301 2.4946 292° West  Level Estimated
08:07AM 49.2733 2.3252 291° West  Level Estimated
08:08AM 49.3163 2.1555 291° West  Level Estimated
08:09AM 49.3590 1.9855 291° West  Level Estimated
08:10AM 49.4014 1.8152 291° West  Level Estimated
08:11AM 49.4436 1.6446 291° West  Level Estimated
08:12AM 49.4856 1.4737 291° West  Level Estimated
08:13AM 49.5273 1.3026 291° West  Level Estimated
08:14AM 49.5687 1.1311 290° West  Level Estimated
08:15AM 49.6099 0.9594 290° West  Level Estimated
08:16AM 49.6508 0.7873 290° West  Level Estimated
08:17AM 49.6915 0.6150 290° West  Level Estimated
08:18AM 49.7319 0.4424 290° West  Level Estimated
08:19AM 49.7721 0.2695 290° West  Level Estimated
08:20AM 49.8120 0.0963 290° West  Level Estimated
08:21AM 49.8517 -0.0772 290° West  Level Estimated
08:22AM 49.8911 -0.2510 289° West  Level Estimated
08:23AM 49.9302 -0.4250 289° West  Level Estimated
08:24AM 49.9691 -0.5993 289° West  Level Estimated
08:25AM 50.0077 -0.7739 289° West  Level Estimated
08:26AM 50.0461 -0.9488 289° West  Level Estimated
08:27AM 50.0841 -1.1240 289° West  Level Estimated
08:28AM 50.1220 -1.2994 289° West  Level Estimated
08:29AM 50.1595 -1.4751 289° West  Level Estimated
08:30AM 50.1968 -1.6511 288° West  Level Estimated
08:31AM 50.2338 -1.8274 288° West  Level Estimated
08:32AM 50.2706 -2.0039 288° West  Level Estimated
08:33AM 50.3071 -2.1807 288° West  Level Estimated
08:34AM 50.3433 -2.3578 288° West  Level Estimated
08:35AM 50.3793 -2.5352 288° West  Level Estimated
08:36AM 50.4150 -2.7128 288° West  Level Estimated
08:37AM 50.4504 -2.8907 287° West  Level Estimated
08:38AM 50.4855 -3.0688 287° West  Level Estimated
08:39AM 50.5204 -3.2473 287° West  Level Estimated
08:40AM 50.5550 -3.4259 287° West  Level Estimated
08:41AM 50.5893 -3.6049 287° West  Level Estimated
08:42AM 50.6233 -3.7841 287° West  Level Estimated
08:43AM 50.6571 -3.9635 287° West  Level Estimated
08:44AM 50.6906 -4.1432 286° West  Level Estimated
08:45AM 50.7238 -4.3232 286° West  Level Estimated
08:46AM 50.7568 -4.5034 286° West  Level Estimated
08:47AM 50.7894 -4.6839 286° West  Level Estimated
08:48AM 50.8218 -4.8647 286° West  Level Estimated
08:49AM 50.8539 -5.0456 286° West  Level Estimated
08:50AM 50.8858 -5.2269 286° West  Level Estimated
08:51AM 50.9173 -5.4083 285° West  Level Estimated
08:52AM 50.9486 -5.5901 285° West  Level Estimated
08:53AM 50.9795 -5.7720 285° West  Level Estimated
08:54AM 51.0103 -5.9542 285° West  Level Estimated
08:55AM 51.0407 -6.1367 285° West  Level Estimated
08:56AM 51.0708 -6.3194 285° West  Level Estimated
08:57AM 51.1006 -6.5023 285° West  Level Estimated
08:58AM 51.1302 -6.6855 284° West  Level Estimated
08:59AM 51.1595 -6.8688 284° West  Level Estimated
09:00AM 51.1884 -7.0525 284° West  Level Estimated
09:01AM 51.2172 -7.2363 284° West  Level Estimated
09:02AM 51.2456 -7.4204 284° West  Level Estimated
09:03AM 51.2737 -7.6047 284° West  Level Estimated
09:04AM 51.3015 -7.7892 284° West  Level Estimated
09:05AM 51.3290 -7.9740 283° West  Level Estimated
09:06AM 51.3563 -8.1590 283° West  Level Estimated
09:07AM 51.3833 -8.3441 283° West  Level Estimated
09:08AM 51.4099 -8.5296 283° West  Level Estimated
09:09AM 51.4363 -8.7152 283° West  Level Estimated
09:10AM 51.4624 -8.9010 283° West  Level Estimated
09:11AM 51.4882 -9.0871 283° West  Level Estimated
09:12AM 51.5136 -9.2733 282° West  Level Estimated
09:13AM 51.5388 -9.4598 282° West  Level Estimated
09:14AM 51.5637 -9.6465 282° West  Level Estimated
09:15AM 51.5883 -9.8334 282° West  Level Estimated
09:16AM 51.6127 -10.0204 282° West  Level Estimated
09:17AM 51.6367 -10.2077 282° West  Level Estimated
09:18AM 51.6604 -10.3952 282° West  Level Estimated
09:19AM 51.6838 -10.5829 281° West  Level Estimated
09:20AM 51.7069 -10.7707 281° West  Level Estimated
09:21AM 51.7297 -10.9588 281° West  Level Estimated
09:22AM 51.7522 -11.1470 281° West  Level Estimated
09:23AM 51.7744 -11.3354 281° West  Level Estimated
09:24AM 51.7963 -11.5240 281° West  Level Estimated
09:25AM 51.8179 -11.7128 281° West  Level Estimated
09:26AM 51.8392 -11.9018 280° West  Level Estimated
09:27AM 51.8602 -12.0910 280° West  Level Estimated
09:28AM 51.8809 -12.2803 280° West  Level Estimated
09:29AM 51.9013 -12.4698 280° West  Level Estimated
09:30AM 51.9214 -12.6595 280° West  Level Estimated
09:31AM 51.9412 -12.8493 280° West  Level Estimated
09:32AM 51.9607 -13.0393 280° West  Level Estimated
09:33AM 51.9799 -13.2295 279° West  Level Estimated
09:34AM 51.9987 -13.4198 279° West  Level Estimated
09:35AM 52.0173 -13.6103 279° West  Level Estimated
09:36AM 52.0355 -13.8010 279° West  Level Estimated
09:37AM 52.0535 -13.9917 279° West  Level Estimated
09:38AM 52.0711 -14.1827 279° West  Level Estimated
09:39AM 52.0884 -14.3738 278° West  Level Estimated
09:40AM 52.1054 -14.5651 278° West  Level Estimated
09:41AM 52.1222 -14.7564 278° West  Level Estimated
09:42AM 52.1386 -14.9480 278° West  Level Estimated
09:43AM 52.1547 -15.1397 278° West  Level Estimated
09:44AM 52.1704 -15.3315 278° West  Level Estimated
09:45AM 52.1859 -15.5234 278° West  Level Estimated
09:46AM 52.2010 -15.7155 277° West  Level Estimated
09:47AM 52.2159 -15.9077 277° West  Level Estimated
09:48AM 52.2304 -16.1001 277° West  Level Estimated
09:49AM 52.2446 -16.2925 277° West  Level Estimated
09:50AM 52.2585 -16.4851 277° West  Level Estimated
09:51AM 52.2721 -16.6778 277° West  Level Estimated
09:52AM 52.2854 -16.8706 276° West  Level Estimated
09:53AM 52.2984 -17.0636 276° West  Level Estimated
09:54AM 52.3110 -17.2566 276° West  Level Estimated
09:55AM 52.3233 -17.4498 276° West  Level Estimated
09:56AM 52.3354 -17.6430 276° West  Level Estimated
09:57AM 52.3470 -17.8364 276° West  Level Estimated
09:58AM 52.3584 -18.0299 276° West  Level Estimated
09:59AM 52.3695 -18.2234 275° West  Level Estimated
10:00AM 52.3802 -18.4171 275° West  Level Estimated
10:01AM 52.3907 -18.6108 275° West  Level Estimated
10:02AM 52.4008 -18.8047 275° West  Level Estimated
10:03AM 52.4106 -18.9986 275° West  Level Estimated
10:04AM 52.4201 -19.1926 275° West  Level Estimated
10:05AM 52.4293 -19.3867 275° West  Level Estimated
10:06AM 52.4381 -19.5809 274° West  Level Estimated
10:07AM 52.4466 -19.7752 274° West  Level Estimated
10:08AM 52.4548 -19.9695 274° West  Level Estimated
10:09AM 52.4627 -20.1639 274° West  Level Estimated
10:10AM 52.4703 -20.3584 274° West  Level Estimated
10:11AM 52.4776 -20.5529 274° West  Level Estimated
10:12AM 52.4845 -20.7475 273° West  Level Estimated
10:13AM 52.4911 -20.9422 273° West  Level Estimated
10:14AM 52.4974 -21.1369 273° West  Level Estimated
10:15AM 52.5034 -21.3316 273° West  Level Estimated
10:16AM 52.5091 -21.5265 273° West  Level Estimated
10:17AM 52.5144 -21.7213 273° West  Level Estimated
10:18AM 52.5194 -21.9162 272° West  Level Estimated
10:19AM 52.5241 -22.1112 272° West  Level Estimated
10:20AM 52.5285 -22.3062 272° West  Level Estimated
10:21AM 52.5326 -22.5012 272° West  Level Estimated
10:22AM 52.5363 -22.6963 272° West  Level Estimated
10:23AM 52.5397 -22.8914 272° West  Level Estimated
10:24AM 52.5428 -23.0865 272° West  Level Estimated
10:25AM 52.5456 -23.2817 271° West  Level Estimated
10:26AM 52.5480 -23.4769 271° West  Level Estimated
10:27AM 52.5502 -23.6721 271° West  Level Estimated
10:28AM 52.5520 -23.8673 271° West  Level Estimated
10:29AM 52.5535 -24.0625 271° West  Level Estimated
10:30AM 52.5546 -24.2578 271° West  Level Estimated
10:31AM 52.5555 -24.4530 270° West  Level Estimated
10:32AM 52.5560 -24.6483 270° West  Level Estimated
10:33AM 52.5562 -24.8435 270° West  Level Estimated
10:34AM 52.5561 -25.0388 270° West  Level Estimated
10:35AM 52.5557 -25.2341 270° West  Level Estimated
10:36AM 52.5549 -25.4293 270° West  Level Estimated
10:37AM 52.5538 -25.6245 270° West  Level Estimated
10:38AM 52.5524 -25.8198 269° West  Level Estimated
10:39AM 52.5507 -26.0150 269° West  Level Estimated
10:40AM 52.5487 -26.2102 269° West  Level Estimated
10:41AM 52.5463 -26.4054 269° West  Level Estimated
10:42AM 52.5436 -26.6006 269° West  Level Estimated
10:43AM 52.5406 -26.7957 269° West  Level Estimated
10:44AM 52.5373 -26.9908 268° West  Level Estimated
10:45AM 52.5336 -27.1859 268° West  Level Estimated
10:46AM 52.5297 -27.3809 268° West  Level Estimated
10:47AM 52.5254 -27.5759 268° West  Level Estimated
10:48AM 52.5208 -27.7709 268° West  Level Estimated
10:49AM 52.5158 -27.9658 268° West  Level Estimated
10:50AM 52.5106 -28.1607 268° West  Level Estimated
10:51AM 52.5050 -28.3556 267° West  Level Estimated
10:52AM 52.4991 -28.5503 267° West  Level Estimated
10:53AM 52.4929 -28.7451 267° West  Level Estimated
10:54AM 52.4864 -28.9397 267° West  Level Estimated
10:55AM 52.4795 -29.1343 267° West  Level Estimated
10:56AM 52.4724 -29.3289 267° West  Level Estimated
10:57AM 52.4649 -29.5234 266° West  Level Estimated
10:58AM 52.4571 -29.7178 266° West  Level Estimated
10:59AM 52.4489 -29.9121 266° West  Level Estimated
11:00AM 52.4405 -30.1064 266° West  Level Estimated
11:01AM 52.4317 -30.3006 266° West  Level Estimated
11:02AM 52.4227 -30.4947 266° West  Level Estimated
11:03AM 52.4133 -30.6888 266° West  Level Estimated
11:04AM 52.4035 -30.8827 265° West  Level Estimated
11:05AM 52.3935 -31.0766 265° West  Level Estimated
11:06AM 52.3832 -31.2704 265° West  Level Estimated
11:07AM 52.3725 -31.4641 265° West  Level Estimated
11:08AM 52.3615 -31.6577 265° West  Level Estimated
11:09AM 52.3502 -31.8512 265° West  Level Estimated
11:10AM 52.3386 -32.0446 264° West  Level Estimated
11:11AM 52.3267 -32.2379 264° West  Level Estimated
11:12AM 52.3144 -32.4310 264° West  Level Estimated
11:13AM 52.3019 -32.6241 264° West  Level Estimated
11:14AM 52.2890 -32.8171 264° West  Level Estimated
11:15AM 52.2758 -33.0099 264° West  Level Estimated
11:16AM 52.2623 -33.2027 264° West  Level Estimated
11:17AM 52.2485 -33.3953 263° West  Level Estimated
11:18AM 52.2344 -33.5878 263° West  Level Estimated
11:19AM 52.2199 -33.7802 263° West  Level Estimated
11:20AM 52.2052 -33.9724 263° West  Level Estimated
11:21AM 52.1901 -34.1645 263° West  Level Estimated
11:22AM 52.1747 -34.3565 263° West  Level Estimated
11:23AM 52.1590 -34.5484 262° West  Level Estimated
11:24AM 52.1431 -34.7401 262° West  Level Estimated
11:25AM 52.1267 -34.9317 262° West  Level Estimated
11:26AM 52.1101 -35.1231 262° West  Level Estimated
11:27AM 52.0932 -35.3144 262° West  Level Estimated
11:28AM 52.0760 -35.5055 262° West  Level Estimated
11:29AM 52.0584 -35.6965 262° West  Level Estimated
11:30AM 52.0405 -35.8874 261° West  Level Estimated
11:31AM 52.0224 -36.0781 261° West  Level Estimated
11:32AM 52.0039 -36.2686 261° West  Level Estimated
11:33AM 51.9851 -36.4590 261° West  Level Estimated
11:34AM 51.9660 -36.6492 261° West  Level Estimated
11:35AM 51.9466 -36.8392 261° West  Level Estimated
11:36AM 51.9269 -37.0291 261° West  Level Estimated
11:37AM 51.9069 -37.2188 260° West  Level Estimated
11:38AM 51.8866 -37.4084 260° West  Level Estimated
11:39AM 51.8660 -37.5978 260° West  Level Estimated
11:40AM 51.8451 -37.7870 260° West  Level Estimated
11:41AM 51.8239 -37.9760 260° West  Level Estimated
11:42AM 51.8024 -38.1648 260° West  Level Estimated
11:43AM 51.7805 -38.3535 259° West  Level Estimated
11:44AM 51.7584 -38.5420 259° West  Level Estimated
11:45AM 51.7360 -38.7303 259° West  Level Estimated
11:46AM 51.7132 -38.9184 259° West  Level Estimated
11:47AM 51.6902 -39.1063 259° West  Level Estimated
11:48AM 51.6669 -39.2940 259° West  Level Estimated
11:49AM 51.6432 -39.4815 259° West  Level Estimated
11:50AM 51.6193 -39.6689 258° West  Level Estimated
11:51AM 51.5951 -39.8560 258° West  Level Estimated
11:52AM 51.5706 -40.0429 258° West  Level Estimated
11:53AM 51.5458 -40.2297 258° West  Level Estimated
11:54AM 51.5206 -40.4162 258° West  Level Estimated
11:55AM 51.4952 -40.6025 258° West  Level Estimated
11:56AM 51.4695 -40.7886 258° West  Level Estimated
11:57AM 51.4435 -40.9745 257° West  Level Estimated
11:58AM 51.4173 -41.1602 257° West  Level Estimated
11:59AM 51.3907 -41.3457 257° West  Level Estimated
12:00PM 51.3638 -41.5309 257° West  Level Estimated
12:01PM 51.3366 -41.7160 257° West  Level Estimated
12:02PM 51.3092 -41.9008 257° West  Level Estimated
12:03PM 51.2814 -42.0854 257° West  Level Estimated
12:04PM 51.2534 -42.2697 256° West  Level Estimated
12:05PM 51.2250 -42.4539 256° West  Level Estimated
12:06PM 51.1964 -42.6378 256° West  Level Estimated
12:07PM 51.1675 -42.8215 256° West  Level Estimated
12:08PM 51.1383 -43.0050 256° West  Level Estimated
12:09PM 51.1088 -43.1882 256° West  Level Estimated
12:10PM 51.0791 -43.3712 256° West  Level Estimated
12:11PM 51.0490 -43.5539 255° West  Level Estimated
12:12PM 51.0187 -43.7364 255° West  Level Estimated
12:13PM 50.9881 -43.9187 255° West  Level Estimated
12:14PM 50.9572 -44.1007 255° West  Level Estimated
12:15PM 50.9260 -44.2825 255° West  Level Estimated
12:16PM 50.8945 -44.4641 255° West  Level Estimated
12:17PM 50.8628 -44.6454 255° West  Level Estimated
12:18PM 50.8307 -44.8264 254° West  Level Estimated
12:19PM 50.7984 -45.0072 254° West  Level Estimated
12:20PM 50.7658 -45.1878 254° West  Level Estimated
12:21PM 50.7329 -45.3680 254° West  Level Estimated
12:22PM 50.6998 -45.5481 254° West  Level Estimated
12:23PM 50.6664 -45.7279 254° West  Level Estimated
12:24PM 50.6327 -45.9074 254° West  Level Estimated
12:25PM 50.5987 -46.0867 253° West  Level Estimated
12:26PM 50.5645 -46.2657 253° West  Level Estimated
12:27PM 50.5299 -46.4444 253° West  Level Estimated
12:28PM 50.4952 -46.6229 253° West  Level Estimated
12:29PM 50.4601 -46.8012 253° West  Level Estimated
12:30PM 50.4248 -46.9791 253° West  Level Estimated
12:31PM 50.3891 -47.1568 253° West  Level Estimated
12:32PM 50.3533 -47.3342 252° West  Level Estimated
12:33PM 50.3171 -47.5114 252° West  Level Estimated
12:34PM 50.2807 -47.6883 252° West  Level Estimated
12:35PM 50.2440 -47.8649 252° West  Level Estimated
12:36PM 50.2071 -48.0412 252° West  Level Estimated
12:37PM 50.1698 -48.2173 252° West  Level Estimated
12:38PM 50.1323 -48.3931 252° West  Level Estimated
12:39PM 50.0946 -48.5686 252° West  Level Estimated
12:40PM 50.0566 -48.7439 251° West  Level Estimated
12:41PM 50.0183 -48.9188 251° West  Level Estimated
12:42PM 49.9798 -49.0935 251° West  Level Estimated
12:43PM 49.9410 -49.2679 251° West  Level Estimated
12:44PM 49.9019 -49.4420 251° West  Level Estimated
12:45PM 49.8626 -49.6159 251° West  Level Estimated
12:46PM 49.8230 -49.7894 251° West  Level Estimated
12:47PM 49.7832 -49.9627 250° West  Level Estimated
12:48PM 49.7431 -50.1357 250° West  Level Estimated
12:49PM 49.7027 -50.3084 250° West  Level Estimated
12:50PM 49.6621 -50.4808 250° West  Level Estimated
12:51PM 49.6212 -50.6529 250° West  Level Estimated
12:52PM 49.5801 -50.8247 250° West  Level Estimated
12:53PM 49.5387 -50.9963 250° West  Level Estimated
12:54PM 49.4971 -51.1675 250° West  Level Estimated
12:55PM 49.4552 -51.3385 249° West  Level Estimated
12:56PM 49.4131 -51.5092 249° West  Level Estimated
12:57PM 49.3707 -51.6795 249° West  Level Estimated
12:58PM 49.3280 -51.8496 249° West  Level Estimated
12:59PM 49.2852 -52.0194 249° West  Level Estimated
01:00PM 49.2420 -52.1889 249° West  Level Estimated
01:01PM 49.1987 -52.3581 249° West  Level Estimated
01:02PM 49.1550 -52.5270 249° West  Level Estimated
01:03PM 49.1112 -52.6955 248° West  Level Estimated
01:04PM 49.0670 -52.8638 248° West  Level Estimated
01:05PM 49.0227 -53.0318 248° West  Level Estimated
01:06PM 48.9781 -53.1995 248° West  Level Estimated
01:07PM 48.9332 -53.3669 248° West  Level Estimated
01:08PM 48.8881 -53.5340 248° West  Level Estimated
01:09PM 48.8428 -53.7008 248° West  Level Estimated
01:10PM 48.7972 -53.8673 247° West  Level Estimated
01:11PM 48.7514 -54.0335 247° West  Level Estimated
01:12PM 48.7054 -54.1994 247° West  Level Estimated
01:13PM 48.6591 -54.3650 247° West  Level Estimated
01:14PM 48.6126 -54.5302 247° West  Level Estimated
01:15PM 48.5658 -54.6952 247° West  Level Estimated
01:16PM 48.5188 -54.8599 247° West  Level Estimated
01:17PM 48.4716 -55.0242 247° West  Level Estimated
01:18PM 48.4241 -55.1883 246° West  Level Estimated
01:19PM 48.3764 -55.3520 246° West  Level Estimated
01:20PM 48.3285 -55.5154 246° West  Level Estimated
01:21PM 48.2803 -55.6786 246° West  Level Estimated
01:22PM 48.2319 -55.8414 246° West  Level Estimated
01:23PM 48.1833 -56.0039 246° West  Level Estimated
01:24PM 48.1345 -56.1661 246° West  Level Estimated
01:25PM 48.0854 -56.3280 246° West  Level Estimated
01:26PM 48.0361 -56.4896 246° West  Level Estimated
01:27PM 47.9866 -56.6509 245° Southwest  Level Estimated
01:28PM 47.9368 -56.8119 245° Southwest  Level Estimated
01:29PM 47.8868 -56.9725 245° Southwest  Level Estimated
01:30PM 47.8366 -57.1329 245° Southwest  Level Estimated
01:31PM 47.7862 -57.2929 245° Southwest  Level Estimated
01:32PM 47.7356 -57.4526 245° Southwest  Level Estimated
01:33PM 47.6847 -57.6120 245° Southwest  Level Estimated
01:34PM 47.6336 -57.7711 245° Southwest  Level Estimated
01:35PM 47.5823 -57.9299 244° Southwest  Level Estimated
01:36PM 47.5308 -58.0884 244° Southwest  Level Estimated
01:37PM 47.4790 -58.2466 244° Southwest  Level Estimated
01:38PM 47.4271 -58.4044 244° Southwest  Level Estimated
01:39PM 47.3749 -58.5620 244° Southwest  Level Estimated
01:40PM 47.3225 -58.7192 244° Southwest  Level Estimated
01:41PM 47.2699 -58.8761 244° Southwest  Level Estimated
01:42PM 47.2171 -59.0327 244° Southwest  Level Estimated
01:43PM 47.1640 -59.1890 244° Southwest  Level Estimated
01:44PM 47.1108 -59.3450 243° Southwest  Level Estimated
01:45PM 47.0573 -59.5007 243° Southwest  Level Estimated
01:46PM 47.0037 -59.6560 243° Southwest  Level Estimated
01:47PM 46.9498 -59.8111 243° Southwest  Level Estimated
01:48PM 46.8957 -59.9658 243° Southwest  Level Estimated
01:49PM 46.8414 -60.1202 243° Southwest  Level Estimated
01:50PM 46.7869 -60.2743 243° Southwest  Level Estimated
01:51PM 46.7322 -60.4282 243° Southwest  Level Estimated
01:52PM 46.6773 -60.5816 243° Southwest  Level Estimated
01:53PM 46.6222 -60.7348 242° Southwest  Level Estimated
01:54PM 46.5668 -60.8877 242° Southwest  Level Estimated
01:55PM 46.5113 -61.0402 242° Southwest  Level Estimated
01:56PM 46.4556 -61.1925 242° Southwest  Level Estimated
01:57PM 46.3997 -61.3444 242° Southwest  Level Estimated
01:58PM 46.3435 -61.4960 242° Southwest  Level Estimated
01:59PM 46.2872 -61.6473 242° Southwest  Level Estimated
02:00PM 46.2307 -61.7983 242° Southwest  Level Estimated
02:01PM 46.1739 -61.9490 242° Southwest  Level Estimated
02:02PM 46.1170 -62.0993 241° Southwest  Level Estimated
02:03PM 46.0599 -62.2494 241° Southwest  Level Estimated
02:04PM 46.0026 -62.3991 241° Southwest  Level Estimated
02:05PM 45.9451 -62.5485 241° Southwest  Level Estimated
02:06PM 45.8873 -62.6977 241° Southwest  Level Estimated
02:07PM 45.8294 -62.8465 241° Southwest  Level Estimated
02:08PM 45.7714 -62.9950 241° Southwest  Level Estimated
02:09PM 45.7131 -63.1432 241° Southwest  Level Estimated
02:10PM 45.6546 -63.2911 241° Southwest  Level Estimated
02:11PM 45.5959 -63.4386 240° Southwest  Level Estimated
02:12PM 45.5371 -63.5859 240° Southwest  Level Estimated
02:13PM 45.4780 -63.7329 240° Southwest  Level Estimated
02:14PM 45.4188 -63.8795 240° Southwest  Level Estimated
02:15PM 45.3594 -64.0259 240° Southwest  Level Estimated
02:16PM 45.2998 -64.1719 240° Southwest  Level Estimated
02:17PM 45.2400 -64.3176 240° Southwest  Level Estimated
02:18PM 45.1800 -64.4631 240° Southwest  Level Estimated
02:19PM 45.1198 -64.6082 240° Southwest  Level Estimated
02:20PM 45.0595 -64.7530 239° Southwest  Level Estimated
02:21PM 44.9989 -64.8975 239° Southwest  Level Estimated
02:22PM 44.9382 -65.0417 239° Southwest  Level Estimated
02:23PM 44.8773 -65.1856 239° Southwest  Level Estimated
02:24PM 44.8163 -65.3292 239° Southwest  Level Estimated
02:25PM 44.7550 -65.4724 239° Southwest  Level Estimated
02:26PM 44.6936 -65.6154 239° Southwest  Level Estimated
02:27PM 44.6320 -65.7581 239° Southwest  Level Estimated
02:28PM 44.5702 -65.9005 239° Southwest  Level Estimated
02:29PM 44.5082 -66.0425 239° Southwest  Level Estimated
02:30PM 44.4461 -66.1843 238° Southwest  Level Estimated
02:31PM 44.3838 -66.3258 238° Southwest  Level Estimated
02:32PM 44.3213 -66.4669 238° Southwest  Level Estimated
02:33PM 44.2586 -66.6078 238° Southwest  Level Estimated
02:34PM 44.1958 -66.7484 238° Southwest  Level Estimated
02:35PM 44.1328 -66.8886 238° Southwest  Level Estimated
02:36PM 44.0696 -67.0286 238° Southwest  Level Estimated
02:37PM 44.0063 -67.1683 238° Southwest  Level Estimated
02:38PM 43.9428 -67.3076 238° Southwest  Level Estimated
02:39PM 43.8791 -67.4467 238° Southwest  Level Estimated
02:40PM 43.8152 -67.5855 238° Southwest  Level Estimated
02:41PM 43.7512 -67.7240 237° Southwest  Level Estimated
02:42PM 43.6870 -67.8621 237° Southwest  Level Estimated
02:43PM 43.6227 -68.0000 237° Southwest  Level Estimated
02:44PM 43.5582 -68.1376 237° Southwest  Level Estimated
02:45PM 43.4935 -68.2749 237° Southwest  Level Estimated
02:46PM 43.4286 -68.4119 237° Southwest  Level Estimated
02:47PM 43.3636 -68.5486 237° Southwest  Level Estimated
02:48PM 43.2984 -68.6850 237° Southwest  Level Estimated
02:49PM 43.2331 -68.8211 237° Southwest  Level Estimated
02:50PM 43.1676 -68.9570 237° Southwest  Level Estimated
02:51PM 43.1019 -69.0925 236° Southwest  Level Estimated
02:52PM 43.0361 -69.2278 236° Southwest  Level Estimated
02:53PM 42.9701 -69.3627 236° Southwest  Level Estimated
02:54PM 42.9040 -69.4974 236° Southwest  Level Estimated
02:55PM 42.8377 -69.6318 236° Southwest  Level Estimated
02:56PM 42.7713 -69.7659 236° Southwest  Level Estimated
02:57PM 42.7047 -69.8997 236° Southwest  Level Estimated
02:58PM 42.6379 -70.0332 236° Southwest  Level Estimated
02:59PM 42.5710 -70.1664 236° Southwest  Level Estimated
03:00PM 42.5039 -70.2993 236° Southwest  Level Estimated
03:01PM 42.4367 -70.4320 236° Southwest  Level Estimated
03:02PM 42.3694 -70.5644 235° Southwest  Level Estimated
03:03PM 42.3018 -70.6965 235° Southwest  Level Estimated
03:04PM 42.2341 -70.8283 235° Southwest  Level Estimated
03:05PM 42.1663 -70.9598 235° Southwest  Level Estimated
03:06PM 42.0983 -71.0910 235° Southwest  Level Estimated
03:07PM 42.0302 -71.2220 235° Southwest  Level Estimated
03:08PM 41.9619 -71.3527 235° Southwest  Level Estimated
03:09PM 41.8935 -71.4831 235° Southwest  Level Estimated
03:10PM 41.8249 -71.6132 235° Southwest  Level Estimated
03:11PM 41.7562 -71.7430 235° Southwest  Level Estimated
03:12PM 41.6874 -71.8726 235° Southwest  Level Estimated
03:13PM 41.6184 -72.0019 235° Southwest  Level Estimated
03:14PM 41.5492 -72.1309 234° Southwest  Level Estimated
03:15PM 41.4799 -72.2596 234° Southwest  Level Estimated
03:16PM 41.4105 -72.3881 234° Southwest  Level Estimated
03:17PM 41.3409 -72.5163 234° Southwest  Level Estimated
03:18PM 41.2712 -72.6442 234° Southwest  Level Estimated
03:19PM 41.2013 -72.7718 234° Southwest  Level Estimated
03:20PM 41.1313 -72.8992 234° Southwest  Level Estimated
03:21PM 41.0611 -73.0263 234° Southwest  Level Estimated
03:22PM 40.9909 -73.1531 234° Southwest  Level Estimated
03:23PM 40.9204 -73.2796 234° Southwest  Level Estimated
03:24PM 40.8499 -73.4059 234° Southwest  Level Estimated
03:25PM 40.7792 -73.5319 233° Southwest  Level Estimated
03:26PM 40.7083 -73.6577 233° Southwest  Level Estimated
03:27PM 40.6398 -73.7789 233° Southwest  Level Estimated
03:28PM 40.6398 -73.7789 72° East  Level Estimated
03:29PM 40.6398 -73.7789 72° East  Level Estimated
03:30PM 40.6398 -73.7789 72° East  Level Estimated
03:31PM 40.6398 -73.7789 72° East  Level Estimated
03:32PM 40.6398 -73.7789 72° East  Level Estimated
03:33PM 40.6398 -73.7789 72° East  Level Estimated
03:34PM 40.6398 -73.7789 72° East  Level Estimated
03:35PM 40.6398 -73.7789 72° East  Level Estimated
03:36PM 40.6398 -73.7789 72° East  Level Estimated
03:37PM 40.6398 -73.7789 72° East  Level Estimated
03:38PM 40.6398 -73.7789 72° East  Level Estimated
03:39PM 40.6398 -73.7789 72° East  Level Estimated
03:40PM 40.6398 -73.7789 72° East  Level Estimated
03:41PM 40.6398 -73.7789 72° East  Level Estimated
03:42PM 40.6398 -73.7789 72° East  Level Estimated
03:43PM 40.6398 -73.7789 72° East  Level Estimated